Time;durP1;ratioP1;P1;durP2;ratioP2;P2;SDS_P1;SDS_P2;PMS_P1;PMS_P2;Temp;Humidity;BMP_temperature;BMP_pressure;BME280_temperature;BME280_humidity;BME280_pressure;Samples;Min_cycle;Max_cycle;Signal;HPM_P1;HPM_P2
2024/03/05 00:01:03;;;;;;;21.15;12.82;;;;;;;6.23;100.00;96161.03;5012594;28;20046;-73
2024/03/05 00:03:29;;;;;;;22.35;12.73;;;;;;;6.36;100.00;96161.72;4999200;28;20518;-71
2024/03/05 00:05:55;;;;;;;20.63;12.23;;;;;;;6.36;100.00;96158.22;5000774;28;20046;-68
2024/03/05 00:08:20;;;;;;;23.27;12.98;;;;;;;6.22;100.00;96156.72;4997507;28;20526;-70
2024/03/05 00:10:46;;;;;;;23.50;13.55;;;;;;;5.69;100.00;96151.50;5002374;28;20042;-70
2024/03/05 00:13:12;;;;;;;25.23;14.40;;;;;;;5.40;100.00;96163.50;4979358;28;20544;-70
2024/03/05 00:15:39;;;;;;;25.42;14.50;;;;;;;5.33;100.00;96160.59;5001184;28;20038;-69
2024/03/05 00:18:05;;;;;;;23.70;14.25;;;;;;;5.43;100.00;96168.25;4994288;28;20068;-70
2024/03/05 00:20:31;;;;;;;26.98;14.88;;;;;;;5.53;100.00;96169.69;5000090;28;20046;-70
2024/03/05 00:22:58;;;;;;;28.25;14.45;;;;;;;5.64;100.00;96173.47;4999641;28;20724;-70
2024/03/05 00:25:24;;;;;;;29.23;14.40;;;;;;;5.82;100.00;96171.22;5000704;28;20058;-69
2024/03/05 00:27:49;;;;;;;23.88;14.40;;;;;;;5.99;100.00;96182.94;5005190;28;20396;-71
2024/03/05 00:30:15;;;;;;;30.52;14.50;;;;;;;6.05;100.00;96181.53;4996183;28;20050;-71
2024/03/05 00:32:41;;;;;;;21.77;13.18;;;;;;;6.06;100.00;96175.75;5001080;28;20077;-72
2024/03/05 00:35:07;;;;;;;28.73;14.18;;;;;;;6.08;100.00;96168.03;4995862;28;20050;-69
2024/03/05 00:37:35;;;;;;;26.60;15.32;;;;;;;6.02;100.00;96174.09;5000004;28;20152;-70
2024/03/05 00:40:04;;;;;;;22.83;14.40;;;;;;;6.08;100.00;96178.13;4998182;28;20056;-72
2024/03/05 00:42:30;;;;;;;25.85;15.05;;;;;;;6.33;100.00;96184.19;5002273;28;20049;-71
2024/03/05 00:44:55;;;;;;;25.00;14.07;;;;;;;6.35;100.00;96187.34;5005851;28;20118;-71
2024/03/05 00:47:21;;;;;;;28.70;14.05;;;;;;;6.00;100.00;96192.69;4998751;28;20048;-69
2024/03/05 00:49:46;;;;;;;19.88;12.98;;;;;;;6.02;100.00;96187.69;5002831;28;20141;-71
2024/03/05 00:52:11;;;;;;;25.23;13.25;;;;;;;6.16;100.00;96181.81;4995424;28;20144;-71
2024/03/05 00:54:37;;;;;;;22.40;13.15;;;;;;;6.06;100.00;96191.28;5001033;28;20045;-69
2024/03/05 00:57:03;;;;;;;23.17;12.57;;;;;;;6.16;100.00;96188.06;4997197;28;20137;-75
2024/03/05 00:59:30;;;;;;;26.23;13.93;;;;;;;6.14;100.00;96179.47;5009534;28;20133;-71
2024/03/05 01:01:55;;;;;;;22.98;13.02;;;;;;;6.19;100.00;96186.56;5000705;28;20045;-70
2024/03/05 01:04:21;;;;;;;24.02;12.15;;;;;;;6.42;100.00;96192.94;4995520;28;20766;-71
2024/03/05 01:06:46;;;;;;;23.23;12.82;;;;;;;6.26;100.00;96189.44;5000113;28;20050;-70
2024/03/05 01:09:16;;;;;;;26.45;13.88;;;;;;;6.07;100.00;96187.44;4996212;28;20605;-72
2024/03/05 01:11:42;;;;;;;22.08;12.32;;;;;;;6.09;100.00;96193.31;5001342;28;20042;-72
2024/03/05 01:14:08;;;;;;;26.58;14.02;;;;;;;6.35;100.00;96187.34;4993352;28;20065;-74
2024/03/05 01:16:33;;;;;;;21.98;13.65;;;;;;;6.32;100.00;96190.78;4999470;28;20103;-72
2024/03/05 01:18:59;;;;;;;25.92;13.57;;;;;;;6.20;100.00;96188.91;4999666;28;20181;-71
2024/03/05 01:21:25;;;;;;;23.60;14.00;;;;;;;6.16;100.00;96198.13;4996358;28;20046;-71
2024/03/05 01:23:50;;;;;;;23.83;14.02;;;;;;;6.21;100.00;96193.25;5000979;28;20057;-73
2024/03/05 01:26:15;;;;;;;25.70;14.55;;;;;;;6.30;100.00;96196.56;4994812;28;20041;-71
2024/03/05 01:28:41;;;;;;;26.27;14.18;;;;;;;6.40;100.00;96189.78;5000546;28;20054;-72
2024/03/05 01:31:08;;;;;;;24.48;13.43;;;;;;;6.27;100.00;96189.09;4996229;28;20404;-74
2024/03/05 01:33:39;;;;;;;22.73;13.45;;;;;;;6.37;100.00;96185.06;5000267;28;20080;-71
2024/03/05 01:36:05;;;;;;;21.73;13.50;;;;;;;6.39;100.00;96192.88;4993469;28;20554;-73
2024/03/05 01:38:30;;;;;;;23.77;13.23;;;;;;;6.33;100.00;96184.19;4999098;28;20049;-74
2024/03/05 01:40:56;;;;;;;20.52;13.00;;;;;;;6.24;100.00;96178.91;4999923;28;20045;-72
2024/03/05 01:43:21;;;;;;;26.27;13.60;;;;;;;6.45;100.00;96184.09;4995006;28;20355;-70
2024/03/05 01:45:48;;;;;;;24.52;13.13;;;;;;;6.41;100.00;96182.41;5003292;28;20077;-71
2024/03/05 01:48:16;;;;;;;29.85;15.68;;;;;;;6.36;100.00;96188.16;4999554;28;20065;-74
2024/03/05 01:50:42;;;;;;;25.80;14.35;;;;;;;6.36;100.00;96190.88;4999481;28;20045;-72
2024/03/05 01:53:10;;;;;;;24.35;13.77;;;;;;;6.38;100.00;96192.09;5010563;28;20041;-71
2024/03/05 01:55:39;;;;;;;23.50;13.77;;;;;;;6.28;100.00;96187.16;5000470;28;20049;-70
2024/03/05 01:58:07;;;;;;;25.08;14.75;;;;;;;6.34;100.00;96193.13;4997406;28;20046;-75
2024/03/05 02:00:36;;;;;;;22.85;13.65;;;;;;;6.40;100.00;96183.56;5000473;28;20108;-70
2024/03/05 02:03:01;;;;;;;25.60;14.20;;;;;;;6.43;100.00;96186.38;4996520;28;20057;-77
2024/03/05 02:05:27;;;;;;;28.27;15.27;;;;;;;6.46;100.00;96188.41;4996329;28;20540;-71
2024/03/05 02:07:55;;;;;;;24.52;14.02;;;;;;;6.42;100.00;96190.22;4999894;28;20046;-69
2024/03/05 02:10:21;;;;;;;25.80;14.48;;;;;;;6.39;100.00;96188.22;4987311;28;20050;-71
2024/03/05 02:12:47;;;;;;;33.90;15.77;;;;;;;6.31;100.00;96184.53;4998926;28;20042;-72
2024/03/05 02:15:13;;;;;;;26.27;13.55;;;;;;;6.41;100.00;96185.94;4995466;28;20049;-72
2024/03/05 02:17:45;;;;;;;25.88;14.05;;;;;;;6.39;100.00;96193.69;4999665;28;20100;-71
2024/03/05 02:20:13;;;;;;;25.60;14.50;;;;;;;6.12;100.00;96196.13;4997115;28;20677;-75
2024/03/05 02:22:42;;;;;;;21.90;14.55;;;;;;;6.06;100.00;96196.72;5009181;28;20057;-72
2024/03/05 02:25:08;;;;;;;24.73;14.70;;;;;;;6.20;100.00;96196.31;4996411;28;20459;-73
2024/03/05 02:27:36;;;;;;;25.02;14.25;;;;;;;6.21;100.00;96206.03;5000267;28;20052;-74
2024/03/05 02:30:10;;;;;;;22.58;14.52;;;;;;;6.33;100.00;96205.94;5004415;28;20157;-79
2024/03/05 02:32:40;;;;;;;26.83;14.85;;;;;;;6.39;100.00;96204.56;5019895;28;20073;-69
2024/03/05 02:35:10;;;;;;;29.00;15.52;;;;;;;6.39;100.00;96206.47;5014005;28;20052;-72
2024/03/05 02:37:39;;;;;;;26.70;14.65;;;;;;;6.41;100.00;96205.00;5012948;28;20400;-70
2024/03/05 02:40:14;;;;;;;23.67;14.73;;;;;;;6.39;100.00;96211.91;4999173;28;20049;-70
2024/03/05 02:42:40;;;;;;;28.08;14.85;;;;;;;6.39;100.00;96209.19;5012372;28;20057;-70
2024/03/05 02:45:07;;;;;;;27.33;14.75;;;;;;;6.29;100.00;96192.25;5003063;28;20139;-69
2024/03/05 02:47:36;;;;;;;29.95;16.00;;;;;;;6.10;100.00;96205.75;5004223;28;20045;-71
2024/03/05 02:50:03;;;;;;;27.35;15.60;;;;;;;5.99;100.00;96208.19;5004394;28;20052;-78
2024/03/05 02:52:30;;;;;;;29.50;15.75;;;;;;;6.00;100.00;96204.34;5010803;28;20045;-72
2024/03/05 02:54:57;;;;;;;27.05;15.85;;;;;;;6.17;100.00;96207.88;5011005;28;20041;-75
2024/03/05 02:57:22;;;;;;;29.60;16.83;;;;;;;6.07;100.00;96215.41;5000171;28;20042;-71
2024/03/05 02:59:48;;;;;;;29.85;17.00;;;;;;;6.01;100.00;96221.44;5004055;28;20055;-70
2024/03/05 03:02:13;;;;;;;27.67;16.73;;;;;;;6.05;100.00;96219.59;4997875;28;20455;-71
2024/03/05 03:04:39;;;;;;;28.60;16.73;;;;;;;6.00;100.00;96219.88;5002696;28;20493;-72
2024/03/05 03:07:04;;;;;;;32.47;17.13;;;;;;;6.01;100.00;96224.94;4998048;28;20578;-72
2024/03/05 03:09:30;;;;;;;32.13;18.02;;;;;;;5.94;100.00;96224.72;5001779;28;20493;-73
2024/03/05 03:11:55;;;;;;;29.85;16.13;;;;;;;5.95;100.00;96223.59;5003762;28;20092;-72
2024/03/05 03:14:21;;;;;;;41.13;19.45;;;;;;;5.93;100.00;96221.22;4999717;28;20493;-74
2024/03/05 03:16:49;;;;;;;32.97;18.02;;;;;;;5.94;100.00;96227.44;5003783;28;20144;-73
2024/03/05 03:19:16;;;;;;;33.40;18.02;;;;;;;6.09;100.00;96226.72;4998203;28;20437;-74
2024/03/05 03:21:42;;;;;;;33.25;17.65;;;;;;;6.07;100.00;96229.00;5001465;28;20049;-72
2024/03/05 03:24:10;;;;;;;32.13;18.05;;;;;;;6.09;100.00;96223.22;4997869;28;20046;-72
2024/03/05 03:26:36;;;;;;;28.80;15.20;;;;;;;6.03;100.00;96227.31;5003103;28;20076;-73
2024/03/05 03:29:02;;;;;;;30.33;16.88;;;;;;;6.08;100.00;96230.56;5014252;28;20081;-77
2024/03/05 03:31:28;;;;;;;31.83;16.30;;;;;;;6.01;100.00;96229.59;4986674;28;20441;-73
2024/03/05 03:33:53;;;;;;;30.63;16.33;;;;;;;5.96;100.00;96238.00;5003877;28;20045;-74
2024/03/05 03:36:23;;;;;;;29.63;16.70;;;;;;;5.81;100.00;96229.44;4995885;28;20065;-72
2024/03/05 03:38:49;;;;;;;28.85;16.85;;;;;;;5.67;100.00;96232.56;5002019;28;20053;-70
2024/03/05 03:41:15;;;;;;;30.85;17.30;;;;;;;5.39;100.00;96235.25;4994307;28;20132;-71
2024/03/05 03:43:41;;;;;;;29.20;16.63;;;;;;;5.35;100.00;96240.59;5001679;28;20572;-72
2024/03/05 03:46:08;;;;;;;32.28;16.58;;;;;;;5.52;100.00;96255.03;4997189;28;20045;-72
2024/03/05 03:48:37;;;;;;;35.35;18.40;;;;;;;5.57;100.00;96251.28;5002152;28;20042;-71
2024/03/05 03:51:03;;;;;;;34.85;18.17;;;;;;;5.75;100.00;96256.06;4981737;28;20721;-77
2024/03/05 03:53:30;;;;;;;28.90;16.67;;;;;;;5.94;100.00;96260.06;4999144;28;20115;-72
2024/03/05 03:55:57;;;;;;;29.13;16.40;;;;;;;6.07;100.00;96263.56;5001693;28;20049;-73
2024/03/05 03:58:23;;;;;;;33.30;17.10;;;;;;;6.07;100.00;96261.63;4997587;28;20537;-71
2024/03/05 04:00:49;;;;;;;33.05;17.45;;;;;;;6.01;100.00;96264.94;5008738;28;20481;-72
2024/03/05 04:03:15;;;;;;;31.23;17.30;;;;;;;6.03;100.00;96268.09;4993702;28;20065;-73
2024/03/05 04:05:41;;;;;;;28.35;16.52;;;;;;;6.08;100.00;96274.06;5002313;28;20050;-72
2024/03/05 04:08:07;;;;;;;31.30;16.65;;;;;;;6.15;100.00;96273.47;4997608;28;20054;-72
2024/03/05 04:10:33;;;;;;;30.88;16.02;;;;;;;6.03;100.00;96274.34;5001911;28;20081;-72
2024/03/05 04:13:00;;;;;;;31.05;17.67;;;;;;;5.94;100.00;96281.81;5000257;28;20074;-72
2024/03/05 04:15:25;;;;;;;32.92;17.33;;;;;;;5.87;100.00;96279.69;4979624;28;20041;-71
2024/03/05 04:17:50;;;;;;;33.53;18.70;;;;;;;5.98;100.00;96285.47;5001386;28;20050;-73
2024/03/05 04:20:16;;;;;;;33.53;17.10;;;;;;;6.15;100.00;96289.78;5021824;28;20159;-75
2024/03/05 04:22:42;;;;;;;28.65;17.05;;;;;;;6.12;100.00;96285.84;5018258;28;20062;-71
2024/03/05 04:25:08;;;;;;;29.88;17.48;;;;;;;6.00;100.00;96296.00;4996363;28;20061;-71
2024/03/05 04:27:36;;;;;;;28.33;16.85;;;;;;;5.98;100.00;96276.50;5000938;28;20042;-71
2024/03/05 04:30:03;;;;;;;30.30;17.58;;;;;;;6.07;100.00;96282.59;4998117;28;20054;-74
2024/03/05 04:32:29;;;;;;;26.75;17.38;;;;;;;6.11;100.00;96280.75;5003239;28;20041;-72
2024/03/05 04:35:01;;;;;;;29.73;16.95;;;;;;;6.04;100.00;96286.78;5005751;28;20045;-71
2024/03/05 04:37:30;;;;;;;28.98;16.10;;;;;;;6.12;100.00;96287.75;4989417;28;20042;-72
2024/03/05 04:39:56;;;;;;;34.57;17.73;;;;;;;6.18;100.00;96294.53;5002679;28;20473;-72
2024/03/05 04:42:24;;;;;;;30.27;17.05;;;;;;;6.21;100.00;96293.03;4996564;28;20494;-72
2024/03/05 04:44:51;;;;;;;30.27;17.80;;;;;;;6.25;100.00;96297.44;5001979;28;20042;-72
2024/03/05 04:47:17;;;;;;;29.77;16.75;;;;;;;6.21;100.00;96296.56;4996805;28;20073;-73
2024/03/05 04:49:42;;;;;;;27.33;17.08;;;;;;;6.25;100.00;96288.50;5000356;28;20072;-71
2024/03/05 04:52:09;;;;;;;28.25;16.25;;;;;;;6.26;100.00;96299.00;4996001;28;20037;-72
2024/03/05 04:54:35;;;;;;;32.70;16.90;;;;;;;6.27;100.00;96288.94;4999995;28;20046;-71
2024/03/05 04:57:01;;;;;;;34.08;16.63;;;;;;;6.31;100.00;96295.25;5014952;28;20050;-77
2024/03/05 04:59:27;;;;;;;30.80;17.40;;;;;;;6.26;100.00;96301.72;4981055;28;20046;-70
2024/03/05 05:01:53;;;;;;;28.38;16.05;;;;;;;6.24;100.00;96292.34;4998800;28;20524;-70
2024/03/05 05:04:19;;;;;;;32.63;17.30;;;;;;;6.01;100.00;96294.84;4993889;28;20073;-70
2024/03/05 05:06:44;;;;;;;30.17;16.52;;;;;;;5.88;100.00;96297.56;5001319;28;20084;-70
2024/03/05 05:09:10;;;;;;;34.05;17.83;;;;;;;5.79;100.00;96290.72;4996871;28;20485;-73
2024/03/05 05:11:36;;;;;;;33.00;17.83;;;;;;;5.69;100.00;96298.22;4999476;28;20099;-71
2024/03/05 05:14:02;;;;;;;30.88;16.80;;;;;;;5.73;100.00;96298.31;4998948;28;20099;-74
2024/03/05 05:16:27;;;;;;;33.15;18.55;;;;;;;5.74;100.00;96300.69;4996941;28;20045;-71
2024/03/05 05:18:53;;;;;;;31.63;17.27;;;;;;;5.81;100.00;96302.81;5000511;28;20118;-70
2024/03/05 05:21:19;;;;;;;33.70;17.48;;;;;;;5.90;100.00;96310.81;4993586;28;20074;-71
2024/03/05 05:23:44;;;;;;;30.85;17.98;;;;;;;6.03;100.00;96320.56;5001086;28;20069;-72
2024/03/05 05:26:12;;;;;;;31.20;17.40;;;;;;;6.02;100.00;96310.03;4995725;28;20045;-71
2024/03/05 05:28:38;;;;;;;32.90;18.02;;;;;;;6.07;100.00;96317.94;5001976;28;20038;-72
2024/03/05 05:31:05;;;;;;;30.83;18.05;;;;;;;6.07;100.00;96305.13;5028218;22;20057;-76
2024/03/05 05:33:32;;;;;;;28.23;16.35;;;;;;;6.09;100.00;96312.94;5023353;28;20128;-76
2024/03/05 05:35:57;;;;;;;33.65;17.17;;;;;;;6.13;100.00;96314.59;5028754;28;20053;-76
2024/03/05 05:38:24;;;;;;;30.90;15.95;;;;;;;6.24;100.00;96314.91;4994803;28;20468;-76
2024/03/05 05:40:49;;;;;;;33.30;17.23;;;;;;;6.28;100.00;96318.53;4990875;28;20065;-77
2024/03/05 05:43:14;;;;;;;30.05;16.40;;;;;;;6.22;100.00;96314.44;4975962;28;20062;-78
2024/03/05 05:45:40;;;;;;;27.80;16.67;;;;;;;6.16;100.00;96323.19;4980875;28;20192;-78
2024/03/05 05:48:05;;;;;;;36.28;17.40;;;;;;;6.17;100.00;96319.34;4978053;28;20047;-79
2024/03/05 05:50:31;;;;;;;35.97;17.65;;;;;;;6.00;100.00;96320.47;4980293;28;20189;-77
2024/03/05 05:52:57;;;;;;;32.97;17.75;;;;;;;5.91;100.00;96324.06;4982116;28;20049;-76
2024/03/05 05:55:24;;;;;;;30.63;17.90;;;;;;;5.87;100.00;96316.94;4973894;28;20720;-78
2024/03/05 05:57:51;;;;;;;34.22;17.60;;;;;;;5.81;100.00;96321.06;4963052;28;20508;-78
2024/03/05 06:00:38;;;;;;;32.65;18.45;;;;;;;5.75;100.00;96326.72;4972884;28;20046;-76
2024/03/05 06:03:06;;;;;;;32.83;18.42;;;;;;;5.75;100.00;96334.09;4974484;28;20051;-76
2024/03/05 06:05:34;;;;;;;33.17;18.48;;;;;;;5.71;100.00;96325.06;4995596;28;20100;-75
2024/03/05 06:08:00;;;;;;;32.83;18.38;;;;;;;5.69;100.00;96330.00;4987509;28;20038;-75
2024/03/05 06:10:27;;;;;;;30.02;17.83;;;;;;;5.69;100.00;96330.00;4979637;28;20038;-76
2024/03/05 06:12:53;;;;;;;32.97;18.67;;;;;;;5.78;100.00;96329.88;4984492;28;20034;-74
2024/03/05 06:15:18;;;;;;;35.35;17.88;;;;;;;5.83;100.00;96330.44;4960379;28;20436;-75
2024/03/05 06:17:45;;;;;;;31.15;17.42;;;;;;;6.00;100.00;96332.13;4991100;28;20535;-75
2024/03/05 06:20:11;;;;;;;31.85;17.83;;;;;;;6.10;100.00;96339.78;4990906;28;20098;-75
2024/03/05 06:22:39;;;;;;;37.25;18.15;;;;;;;6.17;100.00;96339.19;4984412;28;20042;-77
2024/03/05 06:25:07;;;;;;;41.10;19.23;;;;;;;6.19;100.00;96344.28;4970491;28;20573;-78
2024/03/05 06:27:34;;;;;;;40.73;20.13;;;;;;;6.29;100.00;96341.84;4969515;28;20050;-75
2024/03/05 06:30:00;;;;;;;36.80;18.83;;;;;;;6.34;100.00;96351.69;4987031;28;20050;-76
2024/03/05 06:32:26;;;;;;;37.47;18.27;;;;;;;6.45;100.00;96350.03;5000420;28;20042;-76
2024/03/05 06:34:51;;;;;;;33.55;18.65;;;;;;;6.54;100.00;96349.09;5011759;28;20046;-78
2024/03/05 06:37:17;;;;;;;37.63;20.00;;;;;;;6.41;100.00;96349.16;4983379;28;20050;-75
2024/03/05 06:39:42;;;;;;;37.15;19.35;;;;;;;6.28;100.00;96350.34;5001893;28;20066;-77
2024/03/05 06:42:13;;;;;;;35.83;19.38;;;;;;;6.26;100.00;96356.13;4997012;28;20080;-78
2024/03/05 06:44:40;;;;;;;39.30;20.23;;;;;;;6.28;100.00;96348.44;4982679;28;20113;-76
2024/03/05 06:47:06;;;;;;;38.80;18.90;;;;;;;6.27;100.00;96362.38;4976361;28;20157;-79
2024/03/05 06:49:38;;;;;;;42.33;20.35;;;;;;;6.16;100.00;96355.84;4970280;28;20039;-76
2024/03/05 06:57:34;;;;;;;38.83;20.70;;;;;;;6.32;100.00;96364.84;5000909;28;20043;-76
2024/03/05 06:59:59;;;;;;;40.17;20.55;;;;;;;6.43;100.00;96363.22;4987365;28;20046;-76
2024/03/05 07:02:27;;;;;;;41.95;20.00;;;;;;;6.51;100.00;96364.19;4979798;28;20108;-74
2024/03/05 07:04:53;;;;;;;41.05;20.35;;;;;;;6.39;100.00;96369.69;4983908;28;20109;-74
2024/03/05 07:07:19;;;;;;;40.13;21.30;;;;;;;6.46;100.00;96375.31;4975300;28;20046;-75
2024/03/05 07:09:45;;;;;;;42.78;21.25;;;;;;;6.63;100.00;96371.50;4984639;28;20112;-76
2024/03/05 07:12:12;;;;;;;41.75;20.30;;;;;;;6.69;100.00;96375.53;4991371;28;20459;-75
2024/03/05 07:14:38;;;;;;;43.53;20.95;;;;;;;6.58;100.00;96382.63;4978142;28;20105;-75
2024/03/05 07:17:06;;;;;;;40.55;20.17;;;;;;;6.65;100.00;96383.59;4957082;28;20042;-75
2024/03/05 07:19:32;;;;;;;41.22;19.67;;;;;;;6.53;100.00;96380.94;4971284;28;20038;-76
2024/03/05 07:21:57;;;;;;;45.42;20.52;;;;;;;6.47;100.00;96379.63;4997472;28;20049;-74
2024/03/05 07:24:22;;;;;;;39.50;19.02;;;;;;;6.36;100.00;96386.72;4996643;28;20274;-74
2024/03/05 07:26:48;;;;;;;44.53;19.75;;;;;;;6.46;100.00;96387.00;5006465;28;20140;-73
2024/03/05 07:29:13;;;;;;;40.40;20.23;;;;;;;6.37;100.00;96391.78;4996036;28;20046;-73
2024/03/05 07:31:39;;;;;;;40.35;19.75;;;;;;;6.27;100.00;96392.28;5001084;28;20091;-75
2024/03/05 07:34:04;;;;;;;36.08;19.30;;;;;;;6.39;100.00;96391.44;4996410;28;20050;-77
2024/03/05 07:36:29;;;;;;;36.70;20.00;;;;;;;6.37;100.00;96391.78;4995673;28;20065;-75
2024/03/05 07:38:55;;;;;;;38.10;20.02;;;;;;;6.22;100.00;96389.81;4982312;28;20132;-76
2024/03/05 07:41:20;;;;;;;37.97;20.05;;;;;;;6.21;100.00;96399.91;4976660;28;20114;-75
2024/03/05 07:43:45;;;;;;;37.15;18.33;;;;;;;6.14;100.00;96391.56;4981960;28;20039;-77
2024/03/05 07:46:11;;;;;;;39.13;18.75;;;;;;;6.26;100.00;96402.38;4977925;28;20045;-76
2024/03/05 07:48:37;;;;;;;33.65;18.73;;;;;;;6.16;100.00;96393.91;4980726;28;20042;-75
2024/03/05 07:51:02;;;;;;;30.35;16.15;;;;;;;6.25;100.00;96395.34;4976910;28;20548;-75
2024/03/05 07:53:28;;;;;;;32.35;18.00;;;;;;;6.44;100.00;96393.91;4980621;28;20165;-76
2024/03/05 07:55:53;;;;;;;36.80;19.38;;;;;;;6.43;100.00;96393.13;4980051;28;20050;-74
2024/03/05 07:58:19;;;;;;;44.30;18.48;;;;;;;6.47;100.00;96383.13;4976081;28;20090;-77
2024/03/05 08:00:44;;;;;;;35.63;18.10;;;;;;;6.38;100.00;96393.38;4980647;28;20109;-76
2024/03/05 08:03:10;;;;;;;34.22;17.23;;;;;;;6.38;100.00;96395.31;4990390;28;20140;-76
2024/03/05 08:05:35;;;;;;;35.58;19.10;;;;;;;6.31;100.00;96395.91;4987678;28;20056;-76
2024/03/05 08:08:01;;;;;;;36.30;18.63;;;;;;;6.53;100.00;96407.38;4999217;28;20467;-75
2024/03/05 08:10:27;;;;;;;39.58;17.25;;;;;;;6.48;100.00;96406.50;4995869;28;20046;-75
2024/03/05 08:12:55;;;;;;;31.95;15.88;;;;;;;6.44;100.00;96408.31;4973851;28;20057;-74
2024/03/05 08:15:21;;;;;;;35.60;19.10;;;;;;;6.50;100.00;96409.66;4973302;28;20572;-75
2024/03/05 08:17:48;;;;;;;35.40;18.13;;;;;;;6.40;100.00;96412.84;4980516;28;20038;-75
2024/03/05 08:20:16;;;;;;;32.92;17.55;;;;;;;6.44;100.00;96415.69;4971841;28;20149;-74
2024/03/05 08:22:46;;;;;;;34.55;19.08;;;;;;;6.56;100.00;96406.69;4964466;28;20054;-74
2024/03/05 08:25:16;;;;;;;32.42;17.85;;;;;;;6.63;100.00;96407.66;4978022;28;20046;-74
2024/03/05 08:27:41;;;;;;;;;;;;;;;6.62;100.00;96406.06;4990488;28;20173;-75
2024/03/05 08:30:11;;;;;;;32.83;16.55;;;;;;;6.77;100.00;96411.88;4996354;28;20004;-74
2024/03/05 08:32:39;;;;;;;36.30;17.95;;;;;;;6.61;100.00;96414.56;4980299;28;20066;-75
2024/03/05 08:35:06;;;;;;;36.72;18.90;;;;;;;6.58;100.00;96413.34;4968642;28;20047;-74
2024/03/05 08:37:32;;;;;;;40.50;18.08;;;;;;;6.60;100.00;96421.94;4977794;28;20053;-75
2024/03/05 08:39:58;;;;;;;31.92;18.08;;;;;;;6.65;100.00;96418.97;5015715;28;20045;-77
2024/03/05 08:42:23;;;;;;;36.15;16.98;;;;;;;6.70;100.00;96416.00;5013664;28;20060;-75
2024/03/05 08:44:48;;;;;;;42.95;17.77;;;;;;;6.69;100.00;96421.81;4999496;28;20104;-75
2024/03/05 08:47:14;;;;;;;34.97;17.80;;;;;;;6.61;100.00;96426.28;4993325;28;20442;-74
2024/03/05 08:49:39;;;;;;;32.13;15.80;;;;;;;6.54;100.00;96434.25;4998756;28;20100;-76
2024/03/05 08:52:06;;;;;;;28.50;16.08;;;;;;;6.53;100.00;96434.59;4994492;28;20062;-75
2024/03/05 08:54:32;;;;;;;34.53;17.27;;;;;;;6.56;100.00;96425.72;5015044;28;20038;-75
2024/03/05 08:56:58;;;;;;;32.53;16.65;;;;;;;6.44;100.00;96432.00;5000338;28;20273;-76
2024/03/05 08:59:27;;;;;;;35.90;16.08;;;;;;;6.54;100.00;96434.25;4994826;28;20049;-74
2024/03/05 09:01:53;;;;;;;27.23;14.73;;;;;;;6.72;100.00;96434.72;4999697;28;20049;-75
2024/03/05 09:04:20;;;;;;;29.90;14.95;;;;;;;6.72;100.00;96436.63;4994054;28;20515;-74
2024/03/05 09:06:45;;;;;;;25.40;13.38;;;;;;;6.63;100.00;96434.88;5017340;28;20046;-75
2024/03/05 09:09:11;;;;;;;26.20;14.23;;;;;;;6.39;100.00;96445.84;4994696;28;20065;-75
2024/03/05 09:11:37;;;;;;;24.08;13.70;;;;;;;6.26;100.00;96436.94;5001520;28;20488;-72
2024/03/05 09:14:02;;;;;;;28.70;14.30;;;;;;;6.29;100.00;96439.75;5016619;28;20052;-76
2024/03/05 09:16:28;;;;;;;25.33;13.23;;;;;;;6.22;100.00;96444.22;5016764;28;20034;-74
2024/03/05 09:18:54;;;;;;;28.77;12.48;;;;;;;6.38;100.00;96438.84;5006496;28;20048;-75
2024/03/05 09:21:19;;;;;;;25.02;13.43;;;;;;;6.50;100.00;96439.56;4993920;28;20045;-76
2024/03/05 09:23:44;;;;;;;22.55;12.23;;;;;;;6.48;100.00;96443.78;4981843;28;20515;-76
2024/03/05 09:26:14;;;;;;;23.27;12.40;;;;;;;6.56;100.00;96445.56;4993925;28;20045;-76
2024/03/05 09:28:39;;;;;;;22.45;12.30;;;;;;;6.79;100.00;96451.25;4999852;28;20403;-76
2024/03/05 09:31:05;;;;;;;21.70;10.77;;;;;;;6.72;100.00;96453.78;5008935;28;20049;-76
2024/03/05 09:33:30;;;;;;;25.77;11.55;;;;;;;6.73;100.00;96447.19;5000221;28;20046;-75
2024/03/05 09:35:56;;;;;;;18.27;9.85;;;;;;;6.75;100.00;96453.06;4997864;28;20148;-75
2024/03/05 09:38:21;;;;;;;16.58;9.30;;;;;;;6.65;100.00;96450.84;4993837;28;20092;-75
2024/03/05 09:40:50;;;;;;;16.52;8.93;;;;;;;6.62;100.00;96455.06;4998801;28;20101;-75
2024/03/05 09:43:16;;;;;;;16.27;8.20;;;;;;;6.48;100.00;96451.94;4993764;28;20104;-75
2024/03/05 09:45:44;;;;;;;15.32;8.10;;;;;;;6.41;100.00;96454.44;4999070;28;20066;-76
2024/03/05 09:48:11;;;;;;;15.63;8.63;;;;;;;6.38;100.00;96452.44;5010468;28;20599;-76
2024/03/05 09:50:38;;;;;;;14.00;8.27;;;;;;;6.38;100.00;96464.09;4991617;28;20107;-75
2024/03/05 09:53:04;;;;;;;17.48;8.32;;;;;;;6.43;100.00;96463.09;4996154;28;20050;-77
2024/03/05 09:55:29;;;;;;;14.30;8.18;;;;;;;6.54;100.00;96463.38;5014081;28;20041;-75
2024/03/05 09:57:55;;;;;;;16.58;8.05;;;;;;;6.57;100.00;96462.66;4981700;28;20061;-77
2024/03/05 10:00:21;;;;;;;14.48;7.20;;;;;;;6.65;100.00;96462.53;4993491;28;20072;-76
2024/03/05 10:02:49;;;;;;;10.63;6.65;;;;;;;6.74;100.00;96464.31;4999860;28;20057;-77
2024/03/05 10:05:25;;;;;;;19.40;6.68;;;;;;;6.78;100.00;96471.44;4984981;28;20046;-76
2024/03/05 10:07:50;;;;;;;12.05;5.90;;;;;;;6.83;100.00;96462.22;4998683;28;20132;-77
2024/03/05 10:10:19;;;;;;;13.48;6.55;;;;;;;6.95;100.00;96459.44;4986998;28;20128;-77
2024/03/05 10:12:44;;;;;;;12.35;5.35;;;;;;;7.03;100.00;96469.38;5011998;28;20137;-77
2024/03/05 10:15:22;;;;;;;14.55;5.43;;;;;;;6.95;100.00;96466.81;4994367;28;20128;-74
2024/03/05 10:17:49;;;;;;;10.93;4.88;;;;;;;6.97;100.00;96472.69;4998695;28;20045;-76
2024/03/05 10:20:36;;;;;;;10.70;4.57;;;;;;;7.04;100.00;96475.59;4994350;28;20500;-77
2024/03/05 10:23:04;;;;;;;10.50;4.47;;;;;;;6.85;100.00;96476.28;4997631;28;20057;-78
2024/03/05 10:25:30;;;;;;;6.93;4.07;;;;;;;6.84;100.00;96475.50;4998807;28;20129;-76
2024/03/05 10:27:56;;;;;;;8.82;4.20;;;;;;;6.88;100.00;96479.09;4999916;28;20528;-74
2024/03/05 10:30:25;;;;;;;11.77;4.53;;;;;;;6.89;100.00;96477.16;4993193;28;20274;-75
2024/03/05 10:32:56;;;;;;;11.43;4.65;;;;;;;6.80;100.00;96469.16;5000098;28;20518;-75
2024/03/05 10:35:23;;;;;;;6.53;3.30;;;;;;;6.80;100.00;96476.53;4994662;28;20509;-76
2024/03/05 10:37:58;;;;;;;7.03;3.28;;;;;;;6.88;100.00;96478.31;5004452;28;20189;-76
2024/03/05 10:40:25;;;;;;;4.28;2.67;;;;;;;6.88;100.00;96475.59;4987982;28;20045;-76
2024/03/05 10:42:52;;;;;;;5.20;3.00;;;;;;;6.88;100.00;96476.38;5016114;28;20061;-76
2024/03/05 10:45:28;;;;;;;5.50;2.85;;;;;;;7.02;100.00;96473.25;4994374;28;20048;-76
2024/03/05 10:47:58;;;;;;;7.45;2.50;;;;;;;7.17;100.00;96482.59;5003664;28;20050;-76
2024/03/05 10:50:25;;;;;;;6.88;2.83;;;;;;;7.21;100.00;96471.78;4998109;28;20582;-76
2024/03/05 10:52:52;;;;;;;6.20;2.42;;;;;;;7.24;100.00;96473.81;4987412;28;20519;-75
2024/03/05 10:55:18;;;;;;;6.47;2.35;;;;;;;7.30;100.00;96472.41;4977618;28;20053;-76
2024/03/05 11:00:35;;;;;;;8.07;3.15;;;;;;;7.19;100.00;96466.69;4967550;28;20069;-76
2024/03/05 11:03:33;;;;;;;7.93;2.97;;;;;;;7.52;100.00;96456.59;4982926;28;20050;-76
2024/03/05 11:05:59;;;;;;;5.03;2.10;;;;;;;7.63;100.00;96452.16;4977953;28;20145;-76
2024/03/05 11:08:25;;;;;;;5.03;2.22;;;;;;;7.74;100.00;96452.41;4978180;28;20057;-76
2024/03/05 11:10:56;;;;;;;8.50;2.38;;;;;;;7.84;100.00;96457.34;5000166;28;20049;-76
2024/03/05 11:13:24;;;;;;;8.32;3.08;;;;;;;7.81;100.00;96461.59;4993589;28;20051;-76
2024/03/05 11:15:50;;;;;;;4.80;2.50;;;;;;;7.61;100.00;96452.53;4975992;28;20046;-75
2024/03/05 11:18:31;;;;;;;11.68;3.92;;;;;;;7.77;100.00;96455.22;4978184;28;20045;-76
2024/03/05 11:21:01;;;;;;;14.13;6.22;;;;;;;8.00;100.00;96458.09;4983146;28;20061;-76
2024/03/05 11:23:32;;;;;;;4.85;3.15;;;;;;;8.08;100.00;96455.53;4981835;28;20050;-76
2024/03/05 11:26:03;;;;;;;5.38;2.60;;;;;;;8.38;100.00;96451.13;4985923;28;20046;-76